createdAt,value
2022-08-21T00:01:34.073Z,96508.66
2022-08-21T00:04:07.293Z,96506.28
2022-08-21T00:06:34.075Z,96507.09
2022-08-21T00:09:06.331Z,96502.84
2022-08-21T00:11:35.236Z,96501.78
2022-08-21T00:14:01.502Z,96503.91
2022-08-21T00:16:27.570Z,96500.91
2022-08-21T00:18:53.708Z,96494.53
2022-08-21T00:21:19.578Z,96490.00
2022-08-21T00:23:45.612Z,96492.41
2022-08-21T00:26:11.701Z,96485.72
2022-08-21T00:28:37.636Z,96485.13
2022-08-21T00:31:04.175Z,96480.69
2022-08-21T00:33:31.574Z,96479.88
2022-08-21T00:35:57.945Z,96472.66
2022-08-21T00:38:23.916Z,96474.00
2022-08-21T00:41:02.750Z,96477.72
2022-08-21T00:43:45.884Z,96470.56
2022-08-21T00:46:11.742Z,96466.56
2022-08-21T00:48:37.578Z,96470.25
2022-08-21T00:51:11.652Z,96475.34
2022-08-21T00:53:42.250Z,96470.56
2022-08-21T00:56:10.463Z,96473.22
2022-08-21T00:58:41.615Z,96474.47
2022-08-21T01:01:09.979Z,96468.13
2022-08-21T01:03:36.363Z,96475.03
2022-08-21T01:06:04.500Z,96469.44
2022-08-21T01:08:30.840Z,96469.97
2022-08-21T01:10:57.301Z,96472.91
2022-08-21T01:13:24.736Z,96465.19
2022-08-21T01:15:52.980Z,96462.53
2022-08-21T01:18:20.931Z,96459.25
2022-08-21T01:21:00.715Z,96462.91
2022-08-21T01:23:26.751Z,96468.81
2022-08-21T01:25:52.654Z,96461.16
2022-08-21T01:28:21.311Z,96461.16
2022-08-21T01:30:48.905Z,96465.16
2022-08-21T01:33:14.721Z,96461.66
2022-08-21T01:35:40.615Z,96465.59
2022-08-21T01:38:06.693Z,96469.31
2022-08-21T01:40:32.822Z,96465.66
2022-08-21T01:42:58.787Z,96474.97
2022-08-21T01:45:24.776Z,96476.31
2022-08-21T01:47:50.654Z,96470.56
2022-08-21T01:50:19.120Z,96467.88
2022-08-21T01:52:44.965Z,96465.72
2022-08-21T01:55:13.185Z,96469.47
2022-08-21T01:57:39.216Z,96467.63
2022-08-21T02:00:09.105Z,96476.66
2022-08-21T02:02:34.938Z,96466.31
2022-08-21T02:05:00.795Z,96467.91
2022-08-21T02:07:26.691Z,96468.97
2022-08-21T02:09:52.478Z,96463.94
2022-08-21T02:12:19.532Z,96461.81
2022-08-21T02:14:45.335Z,96455.16
2022-08-21T02:17:11.144Z,96453.28
2022-08-21T02:19:40.444Z,96453.56
2022-08-21T02:22:10.261Z,96451.44
2022-08-21T02:24:54.517Z,96450.91
2022-08-21T02:27:26.147Z,96445.84
2022-08-21T02:29:52.405Z,96446.38
2022-08-21T02:32:18.178Z,96442.84
2022-08-21T02:34:43.973Z,96445.53
2022-08-21T02:37:09.805Z,96448.75
2022-08-21T02:39:35.638Z,96451.41
2022-08-21T02:42:01.490Z,96442.69
2022-08-21T02:44:30.158Z,96445.31
2022-08-21T02:47:00.546Z,96446.38
2022-08-21T02:49:26.370Z,96442.09
2022-08-21T02:51:52.270Z,96437.31
2022-08-21T02:54:18.104Z,96437.34
2022-08-21T02:56:43.888Z,96430.44
2022-08-21T02:59:09.706Z,96434.13
2022-08-21T03:01:36.760Z,96428.56
2022-08-21T03:04:02.726Z,96425.34
2022-08-21T03:06:29.608Z,96422.69
2022-08-21T03:08:55.462Z,96422.69
2022-08-21T03:11:21.348Z,96418.72
2022-08-21T03:13:47.355Z,96423.22
2022-08-21T03:16:13.182Z,96418.91
2022-08-21T03:18:39.238Z,96425.06
2022-08-21T03:21:06.709Z,96427.19
2022-08-21T03:23:32.946Z,96427.47
2022-08-21T03:25:59.562Z,96428.81
2022-08-21T03:28:25.717Z,96424.31
2022-08-21T03:30:52.434Z,96421.66
2022-08-21T03:33:20.656Z,96417.91
2022-08-21T03:36:00.801Z,96417.91
2022-08-21T03:38:29.736Z,96425.09
2022-08-21T03:40:55.554Z,96426.16
2022-08-21T03:43:21.680Z,96424.84
2022-08-21T03:45:47.639Z,96428.56
2022-08-21T03:48:13.581Z,96429.66
2022-08-21T03:50:42.995Z,96431.25
2022-08-21T03:53:16.595Z,96425.91
2022-08-21T03:55:43.422Z,96428.59
2022-08-21T03:58:16.058Z,96432.53
2022-08-21T04:00:45.618Z,96435.72
2022-08-21T04:03:11.537Z,96435.44
2022-08-21T04:05:37.736Z,96434.97
2022-08-21T04:08:05.438Z,96431.00
2022-08-21T04:10:34.881Z,96437.06
2022-08-21T04:13:01.120Z,96441.50
2022-08-21T04:15:27.484Z,96438.31
2022-08-21T04:17:53.806Z,96435.94
2022-08-21T04:20:21.759Z,96440.44
2022-08-21T04:22:48.650Z,96438.28
2022-08-21T04:25:15.716Z,96444.44
2022-08-21T04:27:42.599Z,96447.09
2022-08-21T04:30:09.901Z,96441.50
2022-08-21T04:32:37.822Z,96445.75
2022-08-21T04:35:07.901Z,96443.06
2022-08-21T04:37:33.957Z,96450.56
2022-08-21T04:40:09.671Z,96446.84
2022-08-21T04:42:46.679Z,96451.38
2022-08-21T04:45:22.282Z,96449.25
2022-08-21T04:47:53.155Z,96450.81
2022-08-21T04:50:22.345Z,96453.50
2022-08-21T04:52:48.489Z,96450.88
2022-08-21T04:55:16.723Z,96452.97
2022-08-21T04:57:48.823Z,96450.56
2022-08-21T05:00:18.810Z,96449.47
2022-08-21T05:02:46.013Z,96449.22
2022-08-21T05:05:12.056Z,96452.19
2022-08-21T05:07:42.744Z,96449.28
2022-08-21T05:10:12.385Z,96454.06
2022-08-21T05:12:39.751Z,96451.69
2022-08-21T05:15:05.946Z,96460.47
2022-08-21T05:17:32.025Z,96454.91
2022-08-21T05:19:57.832Z,96459.94
2022-08-21T05:22:24.600Z,96461.28
2022-08-21T05:24:51.329Z,96466.88
2022-08-21T05:27:17.808Z,96460.81
2022-08-21T05:29:44.189Z,96466.66
2022-08-21T05:32:12.065Z,96462.94
2022-08-21T05:34:38.371Z,96461.56
2022-08-21T05:37:07.695Z,96458.13
2022-08-21T05:40:21.122Z,96462.38
2022-08-21T05:42:19.530Z,96464.78
2022-08-21T05:44:45.455Z,96462.63
2022-08-21T05:47:11.956Z,96465.03
2022-08-21T05:49:38.350Z,96466.09
2022-08-21T05:52:04.714Z,96471.41
2022-08-21T05:54:30.793Z,96479.38
2022-08-21T05:56:57.461Z,96469.78
2022-08-21T05:59:23.885Z,96470.84
2022-08-21T06:01:52.774Z,96465.22
2022-08-21T06:04:18.659Z,96467.09
2022-08-21T06:06:44.465Z,96463.63
2022-08-21T06:09:10.506Z,96462.84
2022-08-21T06:11:36.511Z,96465.00
2022-08-21T06:14:02.486Z,96459.38
2022-08-21T06:16:29.390Z,96465.78
2022-08-21T06:18:59.465Z,96468.97
2022-08-21T06:21:27.987Z,96468.91
2022-08-21T06:23:53.841Z,96461.97
2022-08-21T06:26:20.381Z,96468.13
2022-08-21T06:28:46.911Z,96472.41
2022-08-21T06:31:23.920Z,96470.53
2022-08-21T06:33:50.630Z,96473.78
2022-08-21T06:36:18.981Z,96470.78
2022-08-21T06:38:51.103Z,96468.41
2022-08-21T06:41:18.970Z,96464.16
2022-08-21T06:43:50.817Z,96460.97
2022-08-21T06:46:16.639Z,96461.47
2022-08-21T06:48:42.484Z,96464.94
2022-08-21T06:51:08.329Z,96458.81
2022-08-21T06:53:34.348Z,96466.78
2022-08-21T06:56:00.195Z,96460.88
2022-08-21T06:58:26.171Z,96461.41
2022-08-21T07:00:52.067Z,96462.25
2022-08-21T07:03:39.820Z,96461.09
2022-08-21T07:06:08.104Z,96465.38
2022-08-21T07:08:35.034Z,96454.97
2022-08-21T07:11:07.196Z,96460.00
2022-08-21T07:13:33.311Z,96466.44
2022-08-21T07:16:03.638Z,96461.63
2022-08-21T07:18:30.016Z,96463.47
2022-08-21T07:20:56.082Z,96466.34
2022-08-21T07:23:33.762Z,96469.03
2022-08-21T07:26:00.799Z,96459.06
2022-08-21T07:28:27.847Z,96459.34
2022-08-21T07:30:56.180Z,96466.88
2022-08-21T07:33:22.489Z,96467.84
2022-08-21T07:35:48.347Z,96465.44
2022-08-21T07:38:14.187Z,96470.00
2022-08-21T07:40:39.990Z,96461.41
2022-08-21T07:43:05.900Z,96470.25
2022-08-21T07:45:32.365Z,96471.47
2022-08-21T07:47:58.233Z,96471.19
2022-08-21T07:50:24.696Z,96473.50
2022-08-21T07:52:51.293Z,96465.47
2022-08-21T07:55:20.106Z,96469.66
2022-08-21T07:57:47.048Z,96476.38
2022-08-21T08:00:16.380Z,96476.88
2022-08-21T08:02:45.957Z,96474.94
2022-08-21T08:05:12.424Z,96477.63
2022-08-21T08:07:39.156Z,96474.44
2022-08-21T08:10:07.331Z,96478.09
2022-08-21T08:12:34.824Z,96463.75
2022-08-21T08:15:02.685Z,96466.06
2022-08-21T08:17:28.724Z,96465.47
2022-08-21T08:19:55.628Z,96463.88
2022-08-21T08:22:26.074Z,96458.88
2022-08-21T08:24:53.057Z,96459.56
2022-08-21T08:27:19.784Z,96458.47
2022-08-21T08:29:46.339Z,96464.56
2022-08-21T08:32:12.804Z,96460.72
2022-08-21T08:34:40.074Z,96459.91
2022-08-21T08:37:08.558Z,96465.53
2022-08-21T08:39:34.592Z,96459.38
2022-08-21T08:42:33.433Z,96460.50
2022-08-21T08:45:06.921Z,96460.78
2022-08-21T08:47:39.824Z,96466.91
2022-08-21T08:50:28.265Z,96475.75
2022-08-21T08:53:02.305Z,96467.19
2022-08-21T08:55:35.469Z,96476.38
2022-08-21T08:58:02.957Z,96465.53
2022-08-21T09:00:29.501Z,96465.22
2022-08-21T09:02:59.031Z,96458.53
2022-08-21T09:05:40.420Z,96459.66
2022-08-21T09:08:35.104Z,96446.84
2022-08-21T09:11:03.357Z,96447.72
2022-08-21T09:13:47.577Z,96455.75
2022-08-21T09:16:42.497Z,96457.28
2022-08-21T09:19:33.227Z,96456.75
2022-08-21T09:22:08.964Z,96452.84
2022-08-21T09:25:08.230Z,96458.72
2022-08-21T09:27:34.644Z,96449.84
2022-08-21T09:30:00.670Z,96454.50
2022-08-21T09:32:36.754Z,96455.81
2022-08-21T09:35:16.102Z,96451.44
2022-08-21T09:37:52.135Z,96463.25
2022-08-21T09:40:43.526Z,96449.41
2022-08-21T09:43:12.865Z,96438.66
2022-08-21T09:45:42.206Z,96446.22
2022-08-21T09:48:13.901Z,96445.34
2022-08-21T09:50:40.397Z,96437.25
2022-08-21T09:53:17.382Z,96439.53
2022-08-21T09:56:15.511Z,96437.78
2022-08-21T09:58:45.032Z,96441.75
2022-08-21T10:01:23.496Z,96432.44
2022-08-21T10:04:03.690Z,96430.06
2022-08-21T10:06:29.652Z,96436.69
2022-08-21T10:09:19.863Z,96433.00
2022-08-21T10:12:01.191Z,96438.97
2022-08-21T10:15:00.616Z,96440.47
2022-08-21T10:17:55.101Z,96435.00
2022-08-21T10:20:38.037Z,96436.34
2022-08-21T10:23:14.422Z,96430.09
2022-08-21T10:26:13.157Z,96433.59
2022-08-21T10:29:06.696Z,96436.38
2022-08-21T10:31:47.040Z,96428.34
2022-08-21T10:34:38.928Z,96431.91
2022-08-21T10:37:23.153Z,96425.03
2022-08-21T10:40:06.051Z,96423.56
2022-08-21T10:42:52.570Z,96419.34
2022-08-21T10:45:21.271Z,96420.63
2022-08-21T10:47:58.013Z,96418.00
2022-08-21T10:50:50.689Z,96410.81
2022-08-21T10:53:17.123Z,96418.28
2022-08-21T10:56:12.168Z,96411.94
2022-08-21T10:58:45.646Z,96409.78
2022-08-21T11:01:34.157Z,96406.97
2022-08-21T11:04:49.183Z,96408.63
2022-08-21T11:07:26.594Z,96409.88
2022-08-21T11:10:01.879Z,96407.50
2022-08-21T11:12:41.130Z,96404.44
2022-08-21T11:15:28.961Z,96408.78
2022-08-21T11:18:23.949Z,96406.31
2022-08-21T11:21:05.331Z,96419.28
2022-08-21T11:23:41.677Z,96400.41
2022-08-21T11:26:19.211Z,96403.38
2022-08-21T11:28:56.061Z,96407.53
2022-08-21T11:31:38.464Z,96407.47
2022-08-21T11:34:35.532Z,96400.84
2022-08-21T11:37:22.327Z,96407.50
2022-08-21T11:39:50.850Z,96406.84
2022-08-21T11:42:24.411Z,96403.75
2022-08-21T11:45:09.212Z,96404.75
2022-08-21T11:48:06.292Z,96400.94
2022-08-21T11:50:35.605Z,96408.59
2022-08-21T11:53:09.474Z,96406.19
2022-08-21T11:55:57.352Z,96415.69
2022-08-21T11:58:29.804Z,96406.41
2022-08-21T12:01:01.238Z,96399.06
2022-08-21T12:03:31.182Z,96396.94
2022-08-21T12:05:58.787Z,96406.25
2022-08-21T12:08:29.524Z,96402.25
2022-08-21T12:11:17.031Z,96405.03
2022-08-21T12:14:07.467Z,96403.38
2022-08-21T12:16:35.152Z,96397.09
2022-08-21T12:19:07.233Z,96398.69
2022-08-21T12:21:33.897Z,96407.75
2022-08-21T12:24:05.841Z,96406.72
2022-08-21T12:26:59.669Z,96402.16
2022-08-21T12:29:37.492Z,96401.94
2022-08-21T12:32:20.586Z,96403.72
2022-08-21T12:34:55.908Z,96402.75
2022-08-21T12:37:47.760Z,96400.03
2022-08-21T12:40:30.203Z,96394.69
2022-08-21T12:42:59.384Z,96399.50
2022-08-21T12:45:33.034Z,96395.28
2022-08-21T12:48:14.594Z,96390.31
2022-08-21T12:51:00.810Z,96395.25
2022-08-21T12:53:48.101Z,96388.28
2022-08-21T12:56:18.012Z,96396.84
2022-08-21T12:58:52.575Z,96392.59
2022-08-21T13:01:41.721Z,96381.84
2022-08-21T13:04:13.888Z,96395.44
2022-08-21T13:06:50.206Z,96388.28
2022-08-21T13:09:20.670Z,96378.44
2022-08-21T13:11:49.672Z,96383.44
2022-08-21T13:14:29.399Z,96388.13
2022-08-21T13:16:58.949Z,96383.25
2022-08-21T13:19:25.889Z,96383.19
2022-08-21T13:21:52.864Z,96391.09
2022-08-21T13:27:39.549Z,96375.22
2022-08-21T13:30:13.114Z,96386.28
2022-08-21T13:32:48.894Z,96383.00
2022-08-21T13:35:17.187Z,96383.56
2022-08-21T13:37:44.908Z,96374.00
2022-08-21T13:40:15.167Z,96377.88
2022-08-21T13:42:44.289Z,96384.91
2022-08-21T13:45:23.453Z,96386.28
2022-08-21T13:47:49.959Z,96388.69
2022-08-21T13:50:18.429Z,96394.00
2022-08-21T13:52:55.303Z,96375.28
2022-08-21T13:55:25.162Z,96372.34
2022-08-21T13:58:02.126Z,96372.84
2022-08-21T14:00:30.950Z,96371.72
2022-08-21T14:03:06.119Z,96374.13
2022-08-21T14:05:35.628Z,96376.81
2022-08-21T14:08:22.970Z,96378.97
2022-08-21T14:10:57.707Z,96371.22
2022-08-21T14:13:29.791Z,96377.47
2022-08-21T14:15:59.599Z,96370.88
2022-08-21T14:18:26.269Z,96365.66
2022-08-21T14:21:03.575Z,96361.66
2022-08-21T14:23:29.547Z,96370.47
2022-08-21T14:26:00.843Z,96361.41
2022-08-21T14:28:34.121Z,96363.88
2022-08-21T14:31:13.313Z,96374.63
2022-08-21T14:33:39.193Z,96373.50
2022-08-21T14:36:05.435Z,96373.31
2022-08-21T14:38:32.702Z,96373.44
2022-08-21T14:41:08.734Z,96363.50
2022-08-21T14:43:34.593Z,96366.59
2022-08-21T14:46:00.995Z,96366.06
2022-08-21T14:48:26.954Z,96365.50
2022-08-21T14:50:55.949Z,96362.53
2022-08-21T14:53:24.297Z,96364.94
2022-08-21T14:56:05.464Z,96371.41
2022-08-21T14:58:36.423Z,96366.34
2022-08-21T15:01:04.221Z,96368.81
2022-08-21T15:03:31.252Z,96372.69
2022-08-21T15:05:57.531Z,96353.75
2022-08-21T15:08:23.342Z,96357.16
2022-08-21T15:11:10.484Z,96364.94
2022-08-21T15:13:36.516Z,96350.50
2022-08-21T15:16:02.474Z,96343.75
2022-08-21T15:18:30.071Z,96356.59
2022-08-21T15:20:56.127Z,96351.63
2022-08-21T15:23:22.494Z,96355.78
2022-08-21T15:25:49.505Z,96351.75
2022-08-21T15:28:17.267Z,96356.53
2022-08-21T15:30:44.189Z,96358.38
2022-08-21T15:33:10.201Z,96366.41
2022-08-21T15:35:38.120Z,96349.66
2022-08-21T15:38:07.077Z,96346.13
2022-08-21T15:40:38.432Z,96343.63
2022-08-21T15:43:05.629Z,96343.66
2022-08-21T15:45:33.079Z,96344.59
2022-08-21T15:47:59.527Z,96343.94
2022-08-21T15:50:26.572Z,96348.13
2022-08-21T15:52:52.996Z,96351.28
2022-08-21T15:55:21.002Z,96346.72
2022-08-21T15:57:57.922Z,96345.56
2022-08-21T16:00:24.962Z,96336.47
2022-08-21T16:02:54.258Z,96338.66
2022-08-21T16:05:20.917Z,96342.59
2022-08-21T16:07:48.423Z,96338.34
2022-08-21T16:10:16.678Z,96350.47
2022-08-21T16:12:48.219Z,96342.72
2022-08-21T16:15:20.131Z,96340.34
2022-08-21T16:17:49.102Z,96342.16
2022-08-21T16:20:26.373Z,96347.00
2022-08-21T16:22:53.842Z,96348.59
2022-08-21T16:25:21.116Z,96335.50
2022-08-21T16:27:55.270Z,96337.31
2022-08-21T16:30:26.181Z,96337.50
2022-08-21T16:32:52.235Z,96340.38
2022-08-21T16:35:20.228Z,96343.78
2022-08-21T16:37:49.976Z,96341.75
2022-08-21T16:40:18.511Z,96348.19
2022-08-21T16:42:45.589Z,96333.97
2022-08-21T16:45:14.487Z,96329.50
2022-08-21T16:47:40.812Z,96332.25
2022-08-21T16:50:08.256Z,96343.06
2022-08-21T16:52:35.017Z,96332.22
2022-08-21T16:55:01.288Z,96332.53
2022-08-21T16:57:27.492Z,96333.78
2022-08-21T16:59:53.691Z,96337.13
2022-08-21T17:02:34.837Z,96332.41
2022-08-21T17:07:28.416Z,96330.28
2022-08-21T17:09:54.691Z,96334.97
2022-08-21T17:12:20.962Z,96329.81
2022-08-21T17:14:47.972Z,96328.63
2022-08-21T17:17:14.411Z,96324.59
2022-08-21T17:19:41.498Z,96319.38
2022-08-21T17:22:08.732Z,96328.78
2022-08-21T17:24:35.802Z,96322.47
2022-08-21T17:27:03.958Z,96324.06
2022-08-21T17:29:35.928Z,96325.16
2022-08-21T17:32:03.236Z,96332.59
2022-08-21T17:34:31.109Z,96326.72
2022-08-21T17:36:57.781Z,96336.69
2022-08-21T17:39:26.495Z,96334.16
2022-08-21T17:41:57.781Z,96337.78
2022-08-21T17:44:24.583Z,96334.78
2022-08-21T17:46:50.454Z,96328.22
2022-08-21T17:49:16.435Z,96329.38
2022-08-21T17:51:42.581Z,96332.50
2022-08-21T17:54:08.588Z,96330.41
2022-08-21T17:56:36.430Z,96330.19
2022-08-21T17:59:03.970Z,96333.88
2022-08-21T18:01:33.884Z,96341.69
2022-08-21T18:04:00.012Z,96339.59
2022-08-21T18:06:26.263Z,96341.47
2022-08-21T18:08:52.157Z,96348.78
2022-08-21T18:11:23.679Z,96344.81
2022-08-21T18:13:53.437Z,96346.97
2022-08-21T18:16:20.336Z,96350.28
2022-08-21T18:18:48.265Z,96355.78
2022-08-21T18:21:15.007Z,96349.31
2022-08-21T18:23:44.189Z,96352.28
2022-08-21T18:26:14.191Z,96359.00
2022-08-21T18:28:40.702Z,96364.84
2022-08-21T18:31:10.150Z,96354.81
2022-08-21T18:33:38.201Z,96356.75
2022-08-21T18:36:04.834Z,96361.16
2022-08-21T18:38:30.897Z,96355.06
2022-08-21T18:40:58.878Z,96351.50
2022-08-21T18:43:25.840Z,96361.03
2022-08-21T18:45:51.848Z,96357.28
2022-08-21T18:48:18.106Z,96359.59
2022-08-21T18:50:45.801Z,96369.56
2022-08-21T18:53:18.351Z,96367.41
2022-08-21T18:55:54.090Z,96366.88
2022-08-21T18:58:22.937Z,96372.06
2022-08-21T19:00:50.510Z,96376.56
2022-08-21T19:03:22.792Z,96381.00
2022-08-21T19:05:51.688Z,96380.22
2022-08-21T19:08:19.812Z,96384.25
2022-08-21T19:10:47.734Z,96380.03
2022-08-21T19:13:17.112Z,96383.69
2022-08-21T19:15:46.251Z,96377.78
2022-08-21T19:18:14.697Z,96374.69
2022-08-21T19:20:41.475Z,96372.00
2022-08-21T19:23:10.177Z,96377.97
2022-08-21T19:25:41.889Z,96378.81
2022-08-21T19:28:11.728Z,96379.59
2022-08-21T19:30:45.937Z,96384.88
2022-08-21T19:33:23.152Z,96384.09
2022-08-21T19:35:51.068Z,96380.50
2022-08-21T19:38:20.211Z,96391.72
2022-08-21T19:40:46.376Z,96389.53
2022-08-21T19:43:12.654Z,96389.03
2022-08-21T19:45:38.507Z,96386.59
2022-08-21T19:48:05.734Z,96384.34
2022-08-21T19:50:31.704Z,96385.38
2022-08-21T19:52:57.839Z,96383.59
2022-08-21T19:55:24.162Z,96382.69
2022-08-21T19:57:51.919Z,96389.03
2022-08-21T20:00:17.739Z,96376.25
2022-08-21T20:02:58.785Z,96379.00
2022-08-21T20:05:24.757Z,96375.41
2022-08-21T20:08:04.626Z,96379.84
2022-08-21T20:10:30.508Z,96375.56
2022-08-21T20:12:56.408Z,96379.50
2022-08-21T20:15:22.470Z,96379.16
2022-08-21T20:17:50.041Z,96379.34
2022-08-21T20:20:16.105Z,96390.41
2022-08-21T20:22:41.968Z,96390.22
2022-08-21T20:25:08.146Z,96394.13
2022-08-21T20:30:23.025Z,96390.59
2022-08-21T20:32:49.168Z,96385.34
2022-08-21T20:35:15.213Z,96386.22
2022-08-21T20:37:41.451Z,96379.72
2022-08-21T20:40:10.035Z,96386.41
2022-08-21T20:42:41.453Z,96388.47
2022-08-21T20:45:11.559Z,96387.69
2022-08-21T20:47:38.153Z,96388.84
2022-08-21T20:50:13.613Z,96385.44
2022-08-21T20:52:41.736Z,96387.91
2022-08-21T20:55:14.597Z,96388.91
2022-08-21T20:58:05.930Z,96386.41
2022-08-21T21:00:36.241Z,96386.97
2022-08-21T21:03:34.794Z,96390.28
2022-08-21T21:06:05.944Z,96396.44
2022-08-21T21:08:51.881Z,96392.25
2022-08-21T21:11:27.592Z,96389.72
2022-08-21T21:14:03.428Z,96383.72
2022-08-21T21:16:41.457Z,96384.03
2022-08-21T21:19:36.999Z,96378.88
2022-08-21T21:22:23.678Z,96377.50
2022-08-21T21:25:03.797Z,96374.16
2022-08-21T21:27:37.733Z,96379.03
2022-08-21T21:30:12.106Z,96377.94
2022-08-21T21:32:41.025Z,96378.78
2022-08-21T21:35:07.866Z,96372.22
2022-08-21T21:37:38.397Z,96380.44
2022-08-21T21:40:22.940Z,96383.25
2022-08-21T21:43:02.320Z,96387.91
2022-08-21T21:45:40.035Z,96381.88
2022-08-21T21:48:23.814Z,96385.94
2022-08-21T21:51:00.849Z,96378.22
2022-08-21T21:53:54.161Z,96386.59
2022-08-21T21:56:40.666Z,96377.13
2022-08-21T22:02:39.595Z,96370.41
2022-08-21T22:05:16.846Z,96367.75
2022-08-21T22:07:54.242Z,96369.25
2022-08-21T22:10:49.130Z,96375.03
2022-08-21T22:13:38.519Z,96369.97
2022-08-21T22:16:05.836Z,96371.00
2022-08-21T22:18:45.001Z,96370.19
2022-08-21T22:21:19.136Z,96372.22
2022-08-21T22:23:53.161Z,96372.78
2022-08-21T22:26:26.327Z,96372.28
2022-08-21T22:28:52.935Z,96369.66
2022-08-21T22:31:30.799Z,96373.22
2022-08-21T22:33:59.461Z,96374.53
2022-08-21T22:36:30.242Z,96366.44
2022-08-21T22:38:56.120Z,96377.03
2022-08-21T22:41:28.815Z,96379.44
2022-08-21T22:44:01.617Z,96380.91
2022-08-21T22:46:41.490Z,96387.03
2022-08-21T22:49:14.776Z,96380.47
2022-08-21T22:51:45.875Z,96371.03
2022-08-21T22:54:22.093Z,96376.91
2022-08-21T22:56:58.392Z,96374.47
2022-08-21T22:59:31.701Z,96380.13
2022-08-21T23:02:19.361Z,96372.00
2022-08-21T23:04:49.497Z,96379.34
2022-08-21T23:07:43.060Z,96376.38
2022-08-21T23:10:32.919Z,96378.38
2022-08-21T23:16:15.772Z,96372.25
2022-08-21T23:18:56.736Z,96378.59
2022-08-21T23:21:27.754Z,96380.19
2022-08-21T23:24:28.593Z,96374.66
2022-08-21T23:27:14.145Z,96374.50
2022-08-21T23:30:07.285Z,96366.50
2022-08-21T23:32:47.065Z,96365.91
2022-08-21T23:35:51.891Z,96375.59
2022-08-21T23:38:50.579Z,96377.75
2022-08-21T23:41:38.235Z,96373.09
2022-08-21T23:44:15.325Z,96379.53
2022-08-21T23:46:59.035Z,96375.34
2022-08-21T23:49:54.719Z,96376.94
2022-08-21T23:52:45.564Z,96380.31
2022-08-21T23:55:32.364Z,96375.28
2022-08-21T23:58:38.074Z,96375.88
